Time;durP1;ratioP1;P1;durP2;ratioP2;P2;SDS_P1;SDS_P2;PMS_P1;PMS_P2;Temp;Humidity;BMP_temperature;BMP_pressure;BME280_temperature;BME280_humidity;BME280_pressure;Samples;Min_cycle;Max_cycle;Signal;HPM_P1;HPM_P2
2021/10/23 00:01:06;;;;;;;5.87;2.87;;;;;;;6.96;53.69;96563.58;1702843;80;21421;-81
2021/10/23 00:03:32;;;;;;;9.40;4.03;;;;;;;6.95;53.72;96560.67;1726345;82;21076;-81
2021/10/23 00:05:57;;;;;;;7.05;2.80;;;;;;;6.96;53.72;96568.75;1718552;80;21101;-81
2021/10/23 00:08:23;;;;;;;6.72;2.92;;;;;;;6.96;53.99;96571.33;1728515;81;21094;-81
2021/10/23 00:10:49;;;;;;;3.70;1.70;;;;;;;6.97;53.96;96574.73;1717479;81;21066;-81
2021/10/23 00:13:15;;;;;;;11.93;5.60;;;;;;;6.98;53.89;96577.63;1726276;81;21447;-80
2021/10/23 00:15:41;;;;;;;8.50;3.70;;;;;;;6.97;53.99;96572.14;1689965;82;21522;-81
2021/10/23 00:18:07;;;;;;;5.72;1.77;;;;;;;6.97;54.00;96572.95;1713524;82;21044;-81
2021/10/23 00:20:33;;;;;;;5.47;2.60;;;;;;;6.95;54.20;96571.48;1712300;82;21532;-81
2021/10/23 00:22:58;;;;;;;7.42;2.92;;;;;;;6.92;54.56;96590.21;1705371;81;21127;-81
2021/10/23 00:25:24;;;;;;;6.20;2.45;;;;;;;6.91;54.46;96589.08;1720740;81;21079;-81
2021/10/23 00:27:50;;;;;;;4.90;1.70;;;;;;;6.90;54.58;96601.66;1708627;82;21155;-81
2021/10/23 00:30:16;;;;;;;4.03;2.10;;;;;;;6.89;54.54;96606.02;1733747;81;21095;-81
2021/10/23 00:32:43;;;;;;;7.62;3.55;;;;;;;6.89;54.67;96615.06;1717950;81;21473;-81
2021/10/23 00:35:09;;;;;;;6.55;1.90;;;;;;;6.90;54.84;96610.70;1696146;80;21116;-81
2021/10/23 00:37:35;;;;;;;6.53;1.72;;;;;;;6.89;54.93;96612.48;1691464;82;21118;-80
2021/10/23 00:40:01;;;;;;;5.42;2.55;;;;;;;6.88;55.00;96617.32;1676268;83;21497;-81
2021/10/23 00:42:27;;;;;;;4.28;1.90;;;;;;;6.87;55.19;96613.12;1713953;82;21147;-80
2021/10/23 00:44:52;;;;;;;3.98;1.75;;;;;;;6.89;54.89;96624.11;1706246;82;21051;-81
2021/10/23 00:47:20;;;;;;;5.60;3.40;;;;;;;6.89;54.99;96622.81;1718746;81;21064;-81
2021/10/23 00:49:51;;;;;;;11.35;5.53;;;;;;;6.90;55.09;96620.56;1691985;82;21497;-81
2021/10/23 00:52:16;;;;;;;10.10;4.17;;;;;;;6.90;55.12;96622.33;1735741;81;21014;-81
2021/10/23 00:54:42;;;;;;;6.12;3.42;;;;;;;6.89;54.97;96631.05;1711144;81;21032;-81
2021/10/23 00:57:09;;;;;;;7.75;3.90;;;;;;;6.88;55.35;96625.07;1700565;82;21102;-81
2021/10/23 00:59:35;;;;;;;5.50;2.35;;;;;;;6.88;55.32;96616.51;1666621;83;22767;-81
2021/10/23 01:02:01;;;;;;;6.45;2.80;;;;;;;6.88;55.33;96626.84;1702620;83;21086;-81
2021/10/23 01:04:27;;;;;;;7.55;3.62;;;;;;;6.84;55.36;96628.12;1706888;82;21313;-81
2021/10/23 01:06:53;;;;;;;6.42;2.52;;;;;;;6.81;55.56;96639.53;1703562;81;21198;-81
2021/10/23 01:09:19;;;;;;;5.42;2.20;;;;;;;6.78;55.85;96630.00;1722649;82;21148;-80
2021/10/23 01:11:45;;;;;;;8.55;2.90;;;;;;;6.72;55.82;96632.72;1707711;81;21143;-81
2021/10/23 01:14:17;;;;;;;3.72;1.90;;;;;;;6.68;56.17;96644.31;1686850;82;21179;-81
2021/10/23 01:16:43;;;;;;;10.60;5.30;;;;;;;6.65;56.17;96641.20;1710118;81;21200;-80
2021/10/23 01:21:36;;;;;;;6.80;3.12;;;;;;;6.59;56.50;96646.02;1737649;81;21197;-81
2021/10/23 01:24:04;;;;;;;4.50;1.82;;;;;;;6.58;56.63;96653.91;1716745;79;21526;-81
2021/10/23 01:26:30;;;;;;;6.53;2.30;;;;;;;6.57;57.12;96641.97;1700934;83;21102;-81
2021/10/23 01:28:56;;;;;;;2.98;1.60;;;;;;;6.53;57.09;96648.39;1735086;80;21177;-81
2021/10/23 01:31:21;;;;;;;4.35;1.52;;;;;;;6.50;57.58;96654.64;1726446;80;21062;-81
2021/10/23 01:33:47;;;;;;;4.75;1.80;;;;;;;6.48;57.40;96659.15;1737931;79;21048;-81
2021/10/23 01:36:17;;;;;;;4.42;1.75;;;;;;;6.48;57.98;96664.80;1722147;80;21078;-81
2021/10/23 01:38:44;;;;;;;5.47;2.62;;;;;;;6.48;58.01;96665.60;1692363;82;21134;-80
2021/10/23 01:41:10;;;;;;;4.10;1.90;;;;;;;6.49;58.40;96663.83;1695613;81;21110;-81
2021/10/23 01:43:36;;;;;;;5.50;2.35;;;;;;;6.52;58.18;96666.95;1687352;80;21489;-81
2021/10/23 01:46:02;;;;;;;4.72;2.62;;;;;;;6.54;58.44;96679.70;1725382;81;21146;-81
2021/10/23 01:48:28;;;;;;;4.62;1.90;;;;;;;6.56;58.42;96683.75;1694816;81;21070;-81
2021/10/23 01:50:54;;;;;;;6.70;1.90;;;;;;;6.58;58.80;96687.00;1717802;81;21057;-80
2021/10/23 01:53:20;;;;;;;6.78;3.20;;;;;;;6.59;58.71;96687.80;1687777;82;21146;-80
2021/10/23 01:55:46;;;;;;;4.10;1.70;;;;;;;6.59;58.58;96687.80;1674841;82;21560;-81
2021/10/23 01:58:13;;;;;;;3.87;1.95;;;;;;;6.60;58.91;96691.53;1748037;80;21054;-81
2021/10/23 02:00:39;;;;;;;6.35;2.85;;;;;;;6.60;58.57;96698.46;1713317;80;21142;-81
2021/10/23 02:03:05;;;;;;;3.60;2.60;;;;;;;6.61;58.76;96702.19;1732121;81;21132;-80
2021/10/23 02:05:31;;;;;;;9.43;4.65;;;;;;;6.61;58.81;96699.60;1702696;83;21073;-81
2021/10/23 02:07:57;;;;;;;8.65;3.83;;;;;;;6.62;59.04;96702.99;1710000;82;21259;-80
2021/10/23 02:10:22;;;;;;;8.75;3.85;;;;;;;6.61;59.83;96713.80;1702023;82;21118;-81
2021/10/23 02:12:50;;;;;;;8.23;3.15;;;;;;;6.61;59.25;96711.22;1661393;84;21168;-80
2021/10/23 02:15:16;;;;;;;4.62;1.95;;;;;;;6.60;59.45;96718.64;1722426;80;21504;-81
2021/10/23 02:17:42;;;;;;;5.10;2.10;;;;;;;6.58;59.61;96720.56;1687928;82;21107;-81
2021/10/23 02:20:09;;;;;;;5.17;1.60;;;;;;;6.56;59.90;96722.96;1667172;84;21067;-81
2021/10/23 02:22:37;;;;;;;3.08;1.70;;;;;;;6.54;59.73;96733.44;1690459;82;21204;-81
2021/10/23 02:25:03;;;;;;;4.87;1.60;;;;;;;6.52;60.14;96734.08;1644996;83;21512;-80
2021/10/23 02:27:29;;;;;;;2.87;1.82;;;;;;;6.49;60.17;96736.92;1692317;81;21432;-80
2021/10/23 02:29:55;;;;;;;3.87;2.25;;;;;;;6.45;60.27;96738.19;1699657;82;21014;-80
2021/10/23 02:32:21;;;;;;;4.25;2.62;;;;;;;6.39;60.40;96756.85;1695608;81;21093;-81
2021/10/23 02:34:46;;;;;;;4.62;1.90;;;;;;;6.35;61.23;96752.13;1742661;80;21062;-80
2021/10/23 02:37:12;;;;;;;13.85;6.37;;;;;;;6.31;60.59;96765.30;1716692;81;21451;-80
2021/10/23 02:39:38;;;;;;;5.12;2.17;;;;;;;6.28;60.46;96761.73;1686988;81;21072;-80
2021/10/23 02:42:04;;;;;;;4.00;1.92;;;;;;;6.29;60.64;96770.28;1709569;81;21077;-81
2021/10/23 02:44:30;;;;;;;2.12;1.72;;;;;;;6.30;60.47;96764.98;1702461;82;21461;-81
2021/10/23 02:46:57;;;;;;;5.53;2.87;;;;;;;6.29;60.65;96780.61;1746552;80;21057;-81
2021/10/23 02:49:23;;;;;;;3.42;1.95;;;;;;;6.26;60.77;96777.84;1720487;82;21430;-80
2021/10/23 02:51:48;;;;;;;10.13;4.75;;;;;;;6.24;60.70;96787.98;1723641;80;21080;-81
2021/10/23 02:54:14;;;;;;;7.45;3.70;;;;;;;6.24;60.84;96787.50;1712786;80;21141;-81
2021/10/23 02:59:06;;;;;;;5.10;3.10;;;;;;;6.22;61.15;96790.71;1731995;81;21055;-81
2021/10/23 03:01:32;;;;;;;5.20;2.00;;;;;;;6.22;61.36;96789.90;1738387;81;21020;-81
2021/10/23 03:03:58;;;;;;;3.58;2.12;;;;;;;6.20;61.82;96804.72;1679775;83;21502;-81
2021/10/23 03:06:24;;;;;;;3.75;2.10;;;;;;;6.19;61.67;96806.97;1717759;79;21208;-81
2021/10/23 03:08:50;;;;;;;8.65;5.45;;;;;;;6.18;61.62;96807.89;1728658;80;21212;-81
2021/10/23 03:11:15;;;;;;;4.37;2.37;;;;;;;6.18;61.91;96807.89;1709920;83;21509;-81
2021/10/23 03:13:41;;;;;;;6.35;3.67;;;;;;;6.16;61.85;96807.23;1713313;81;21128;-80
2021/10/23 03:16:09;;;;;;;5.60;2.50;;;;;;;6.16;62.30;96811.09;1702494;82;21035;-81
2021/10/23 03:18:36;;;;;;;4.53;2.55;;;;;;;6.15;62.21;96806.89;1724791;81;21041;-80
2021/10/23 03:21:02;;;;;;;5.37;4.80;;;;;;;6.12;62.07;96809.77;1745429;80;21107;-81
2021/10/23 03:23:28;;;;;;;6.60;3.50;;;;;;;6.12;62.65;96816.22;1720681;82;21071;-81
2021/10/23 03:25:54;;;;;;;6.15;4.55;;;;;;;6.12;62.31;96820.09;1708706;83;21168;-81
2021/10/23 03:28:23;;;;;;;7.92;3.12;;;;;;;6.11;62.73;96821.86;1704343;82;21083;-81
2021/10/23 03:30:49;;;;;;;6.50;3.85;;;;;;;6.13;62.60;96822.52;1722214;81;21175;-80
2021/10/23 03:33:17;;;;;;;5.58;2.77;;;;;;;6.19;62.55;96821.97;1708751;79;21256;-80
2021/10/23 03:35:43;;;;;;;6.78;2.85;;;;;;;6.26;62.67;96821.71;1740640;80;22193;-80
2021/10/23 03:38:09;;;;;;;4.55;2.25;;;;;;;6.29;62.68;96817.55;1691630;83;21162;-81
2021/10/23 03:40:35;;;;;;;3.95;2.35;;;;;;;6.30;63.01;96820.94;1727840;79;21122;-81
2021/10/23 03:43:00;;;;;;;8.10;3.83;;;;;;;6.29;62.80;96826.58;1738822;80;21591;-81
2021/10/23 03:45:26;;;;;;;5.50;3.30;;;;;;;6.29;62.88;96827.06;1720934;80;21106;-81
2021/10/23 03:47:53;;;;;;;4.17;2.52;;;;;;;6.29;62.88;96829.64;1726053;79;21078;-80
2021/10/23 03:50:19;;;;;;;4.95;3.20;;;;;;;6.28;62.99;96833.98;1747810;80;21077;-81
2021/10/23 03:52:45;;;;;;;4.47;2.00;;;;;;;6.26;63.09;96839.78;1699561;82;21077;-81
2021/10/23 03:55:11;;;;;;;5.10;2.20;;;;;;;6.26;63.28;96851.39;1685688;84;21426;-80
2021/10/23 03:57:37;;;;;;;4.95;2.77;;;;;;;6.26;63.28;96848.00;1679464;83;21010;-80
2021/10/23 04:00:05;;;;;;;4.87;3.27;;;;;;;6.23;63.24;96845.23;1698614;83;21219;-81
2021/10/23 04:02:31;;;;;;;7.83;3.62;;;;;;;6.22;63.19;96842.80;1707331;82;21446;-81
2021/10/23 04:04:58;;;;;;;7.37;3.33;;;;;;;6.17;63.38;96843.68;1687944;82;21155;-81
2021/10/23 04:07:24;;;;;;;3.52;2.15;;;;;;;6.11;63.35;96839.10;1702965;82;21083;-81
2021/10/23 04:09:50;;;;;;;5.55;2.35;;;;;;;6.05;63.28;96840.97;1690618;81;21044;-80
2021/10/23 04:12:16;;;;;;;4.65;2.90;;;;;;;6.00;63.33;96843.95;1722519;81;21118;-81
2021/10/23 04:14:41;;;;;;;6.17;2.27;;;;;;;5.96;63.60;96849.88;1683523;82;21121;-80
2021/10/23 04:17:07;;;;;;;5.92;3.37;;;;;;;5.97;63.46;96851.98;1720260;81;21060;-81
2021/10/23 04:19:33;;;;;;;6.20;3.55;;;;;;;5.95;63.89;96862.45;1690324;82;21088;-80
2021/10/23 04:22:00;;;;;;;8.00;4.55;;;;;;;5.93;63.63;96858.38;1714049;81;21082;-81
2021/10/23 04:24:26;;;;;;;5.75;2.50;;;;;;;5.88;63.79;96858.78;1728000;80;21457;-80
2021/10/23 04:26:52;;;;;;;10.00;4.72;;;;;;;5.85;63.79;96865.97;1717844;80;21077;-81
2021/10/23 04:29:21;;;;;;;4.78;3.17;;;;;;;5.81;63.92;96869.30;1756483;80;21054;-81
2021/10/23 04:31:48;;;;;;;3.12;1.75;;;;;;;5.78;64.13;96865.73;1763657;80;21171;-81
2021/10/23 04:34:15;;;;;;;3.98;2.72;;;;;;;5.70;64.71;96871.59;1733523;80;21466;-81
2021/10/23 04:36:42;;;;;;;5.22;3.10;;;;;;;5.63;64.38;96870.98;1724778;80;21157;-81
2021/10/23 04:39:10;;;;;;;3.77;2.40;;;;;;;5.60;64.77;96872.08;1753259;79;21201;-80
2021/10/23 04:41:36;;;;;;;8.43;4.05;;;;;;;5.56;65.40;96872.03;1726421;82;21138;-80
2021/10/23 04:44:02;;;;;;;4.55;2.55;;;;;;;5.48;64.95;96874.47;1698837;83;21487;-81
2021/10/23 04:46:28;;;;;;;6.33;2.70;;;;;;;5.46;65.04;96876.84;1749177;79;21104;-80
2021/10/23 04:48:54;;;;;;;5.67;3.83;;;;;;;5.48;65.00;96881.39;1722043;80;21106;-81
2021/10/23 04:51:20;;;;;;;9.75;5.20;;;;;;;5.51;65.11;96885.78;1681944;81;21121;-80
2021/10/23 04:53:46;;;;;;;9.10;3.85;;;;;;;5.49;65.16;96889.45;1681159;83;21148;-81
2021/10/23 04:56:11;;;;;;;6.35;3.52;;;;;;;5.47;65.10;96890.07;1747253;81;21433;-81
2021/10/23 04:58:40;;;;;;;5.50;2.92;;;;;;;5.46;65.16;96901.33;1756690;79;21443;-81
2021/10/23 05:01:05;;;;;;;5.90;3.85;;;;;;;5.45;65.19;96901.00;1756810;80;21476;-80
2021/10/23 05:03:32;;;;;;;13.03;6.37;;;;;;;5.41;65.41;96901.27;1708990;81;21496;-81
2021/10/23 05:05:58;;;;;;;10.82;6.03;;;;;;;5.39;65.58;96901.89;1744817;81;21099;-80
2021/10/23 05:08:24;;;;;;;8.38;4.55;;;;;;;5.38;65.80;96904.13;1723106;81;21123;-81
2021/10/23 05:10:50;;;;;;;7.40;2.42;;;;;;;5.36;65.51;96904.72;1737866;81;21382;-81
2021/10/23 05:13:16;;;;;;;6.17;3.58;;;;;;;5.33;65.65;96912.72;1711036;81;21133;-81
2021/10/23 05:15:41;;;;;;;10.32;4.78;;;;;;;5.30;65.90;96903.98;1651780;85;21652;-80
2021/10/23 05:18:07;;;;;;;12.30;6.03;;;;;;;5.32;65.66;96912.38;1716981;82;21140;-80
2021/10/23 05:20:33;;;;;;;8.75;4.05;;;;;;;5.34;65.55;96915.64;1700911;82;21137;-80
2021/10/23 05:22:59;;;;;;;4.80;3.20;;;;;;;5.37;65.62;96917.16;1724855;81;21149;-80
2021/10/23 05:25:25;;;;;;;5.37;3.40;;;;;;;5.39;66.17;96920.41;1693966;82;21528;-81
2021/10/23 05:27:50;;;;;;;6.75;3.02;;;;;;;5.39;65.75;96926.84;1736512;80;21202;-80
2021/10/23 05:30:16;;;;;;;3.05;1.98;;;;;;;5.37;65.79;96930.85;1684280;83;21066;-81
2021/10/23 05:32:42;;;;;;;4.33;2.65;;;;;;;5.36;65.81;96938.69;1674975;82;21109;-80
2021/10/23 05:35:08;;;;;;;3.80;2.12;;;;;;;5.36;65.79;96934.83;1719161;82;21140;-81
2021/10/23 05:37:34;;;;;;;2.70;1.98;;;;;;;5.33;65.80;96941.07;1709493;81;21096;-80
2021/10/23 05:40:00;;;;;;;3.40;1.70;;;;;;;5.30;65.92;96943.92;1696619;83;21149;-80
2021/10/23 05:42:26;;;;;;;7.90;2.62;;;;;;;5.27;66.02;96943.38;1700872;81;21446;-80
2021/10/23 05:44:52;;;;;;;5.83;2.62;;;;;;;5.26;66.14;96951.59;1709194;81;21210;-80
2021/10/23 05:47:18;;;;;;;4.10;2.27;;;;;;;5.28;65.97;96956.12;1710831;81;21381;-80
2021/10/23 05:49:44;;;;;;;4.72;2.72;;;;;;;5.34;65.96;96958.16;1732620;81;21108;-80
2021/10/23 05:52:10;;;;;;;7.55;3.85;;;;;;;5.40;66.02;96956.82;1694027;82;21122;-80
2021/10/23 05:54:38;;;;;;;4.65;2.55;;;;;;;5.44;66.07;96968.48;1693042;83;21084;-81
2021/10/23 05:57:08;;;;;;;5.08;2.70;;;;;;;5.47;66.16;96967.39;1720410;79;21164;-80
2021/10/23 05:59:37;;;;;;;4.58;2.42;;;;;;;5.50;66.22;96971.80;1736928;80;21099;-80
2021/10/23 06:02:11;;;;;;;3.95;1.95;;;;;;;5.54;66.49;96976.23;1707003;81;21469;-81
2021/10/23 06:04:28;;;;;;;3.20;2.08;;;;;;;5.55;66.62;96977.86;1709992;81;21063;-80
2021/10/23 06:06:55;;;;;;;4.12;2.47;;;;;;;5.56;66.50;96983.34;1715315;82;21031;-80
2021/10/23 06:09:20;;;;;;;4.00;2.37;;;;;;;5.60;66.65;96982.12;1730805;81;21102;-81
2021/10/23 06:11:48;;;;;;;3.22;1.82;;;;;;;5.63;66.57;96980.55;1696214;81;21068;-81
2021/10/23 06:14:13;;;;;;;4.40;1.82;;;;;;;5.65;66.84;96985.91;1712185;81;21091;-81
2021/10/23 06:16:41;;;;;;;2.77;2.08;;;;;;;5.67;67.00;96990.45;1731051;81;21103;-80
2021/10/23 06:19:07;;;;;;;2.95;2.42;;;;;;;5.70;66.91;96997.13;1719854;82;21100;-80
2021/10/23 06:21:33;;;;;;;3.83;1.57;;;;;;;5.74;66.82;97002.34;1716965;82;21448;-80
2021/10/23 06:23:58;;;;;;;4.92;1.75;;;;;;;5.78;66.97;97000.30;1696346;82;21178;-80
2021/10/23 06:26:24;;;;;;;2.77;2.00;;;;;;;5.80;66.96;96997.91;1682752;84;21108;-80
2021/10/23 06:28:50;;;;;;;3.60;1.80;;;;;;;5.84;67.01;97008.77;1692485;84;21154;-80
2021/10/23 06:31:15;;;;;;;3.62;1.87;;;;;;;5.87;66.99;97014.48;1702246;82;21469;-80
2021/10/23 06:33:41;;;;;;;5.33;2.10;;;;;;;5.92;67.13;97021.84;1676741;83;21192;-82
2021/10/23 06:36:07;;;;;;;2.92;2.00;;;;;;;5.91;67.16;97017.16;1691454;82;21285;-81
2021/10/23 06:38:33;;;;;;;2.05;1.85;;;;;;;5.95;67.09;97016.40;1712938;81;21174;-81
2021/10/23 06:40:59;;;;;;;3.87;2.22;;;;;;;5.97;67.33;97026.91;1716438;81;21120;-80
2021/10/23 06:43:25;;;;;;;3.80;2.47;;;;;;;5.99;67.37;97036.61;1733508;80;21582;-80
2021/10/23 06:45:52;;;;;;;4.00;2.30;;;;;;;6.04;67.41;97037.52;1736502;81;21533;-80
2021/10/23 06:48:17;;;;;;;3.77;1.90;;;;;;;6.09;67.54;97045.65;1741910;81;21126;-81
2021/10/23 06:50:43;;;;;;;2.72;1.90;;;;;;;6.14;67.32;97046.52;1738371;81;21046;-81
2021/10/23 06:53:09;;;;;;;3.10;1.62;;;;;;;6.20;67.12;97045.98;1727138;81;21073;-80
2021/10/23 06:55:35;;;;;;;2.75;1.85;;;;;;;6.22;67.09;97050.05;1727176;80;21634;-81
2021/10/23 06:58:00;;;;;;;5.10;2.02;;;;;;;6.21;66.67;97045.84;1754234;79;21156;-81
2021/10/23 07:00:26;;;;;;;2.72;1.85;;;;;;;6.21;66.50;97045.03;1741053;79;21057;-80
2021/10/23 07:02:52;;;;;;;3.40;1.90;;;;;;;6.31;66.80;97063.88;1741595;79;21117;-80
2021/10/23 07:05:20;;;;;;;4.65;2.55;;;;;;;6.32;66.52;97058.57;1751457;79;21146;-80
2021/10/23 07:07:46;;;;;;;3.72;1.87;;;;;;;6.31;66.27;97057.42;1704880;81;21533;-81
2021/10/23 07:10:12;;;;;;;3.83;2.50;;;;;;;6.30;65.91;97058.37;1675181;83;21111;-80
2021/10/23 07:12:38;;;;;;;3.77;1.87;;;;;;;6.29;65.45;97061.44;1676780;84;21085;-81
2021/10/23 07:15:05;;;;;;;6.83;2.47;;;;;;;6.33;65.21;97071.81;1738113;80;21059;-81
2021/10/23 07:17:31;;;;;;;4.72;2.25;;;;;;;6.38;64.98;97075.77;1726321;81;21119;-81
2021/10/23 07:19:57;;;;;;;5.00;2.45;;;;;;;6.39;64.77;97077.39;1717424;82;21127;-81
2021/10/23 07:22:23;;;;;;;5.28;2.05;;;;;;;6.39;64.92;97078.21;1711523;81;21167;-81
2021/10/23 07:24:50;;;;;;;4.58;1.70;;;;;;;6.43;65.15;97072.29;1729021;81;21197;-81
2021/10/23 07:27:16;;;;;;;3.45;1.90;;;;;;;6.48;65.33;97074.78;1716840;80;21054;-81
2021/10/23 07:29:42;;;;;;;6.00;1.87;;;;;;;6.52;65.06;97071.47;1733619;81;21082;-80
2021/10/23 07:32:08;;;;;;;4.17;2.12;;;;;;;6.55;64.89;97081.03;1734294;80;21098;-81
2021/10/23 07:34:34;;;;;;;4.53;1.82;;;;;;;6.58;65.21;97085.91;1695621;82;21140;-81
2021/10/23 07:37:00;;;;;;;2.47;1.52;;;;;;;6.63;65.02;97091.94;1704189;82;21105;-81
2021/10/23 07:39:26;;;;;;;4.33;2.30;;;;;;;6.65;64.70;97090.51;1723998;82;21131;-81
2021/10/23 07:41:53;;;;;;;4.20;2.02;;;;;;;6.69;64.46;97089.30;1711824;82;21237;-81
2021/10/23 07:44:18;;;;;;;4.35;1.82;;;;;;;6.73;64.23;97082.89;1700247;80;21592;-80
2021/10/23 07:46:45;;;;;;;2.60;1.67;;;;;;;6.76;64.12;97092.94;1715931;80;21548;-80
2021/10/23 07:49:11;;;;;;;3.40;1.80;;;;;;;6.80;63.38;97098.96;1694580;81;21175;-80
2021/10/23 07:51:37;;;;;;;2.50;1.90;;;;;;;6.87;63.76;97097.46;1706966;81;21134;-80
2021/10/23 07:54:08;;;;;;;4.30;1.80;;;;;;;6.93;63.54;97098.66;1713867;81;21510;-80
2021/10/23 07:56:37;;;;;;;6.40;2.45;;;;;;;7.03;63.06;97105.09;1714778;82;21591;-80
2021/10/23 07:59:03;;;;;;;2.25;1.67;;;;;;;7.06;62.78;97115.95;1714706;81;21108;-81
2021/10/23 08:01:28;;;;;;;3.25;1.82;;;;;;;7.10;62.33;97121.17;1698009;81;21496;-80
2021/10/23 08:03:55;;;;;;;3.40;1.70;;;;;;;7.14;62.89;97131.55;1736686;80;21629;-80
2021/10/23 08:06:21;;;;;;;4.65;1.70;;;;;;;7.16;61.98;97117.22;1682347;81;21106;-80
2021/10/23 08:08:46;;;;;;;3.00;2.00;;;;;;;7.18;61.78;97121.77;1702728;82;21490;-80
2021/10/23 08:11:12;;;;;;;6.00;1.95;;;;;;;7.19;61.99;97115.16;1680767;81;21086;-80
2021/10/23 08:13:38;;;;;;;3.98;2.50;;;;;;;7.26;62.40;97121.85;1687314;82;21157;-81
2021/10/23 08:16:04;;;;;;;6.75;3.70;;;;;;;7.33;62.71;97115.17;1709694;81;21494;-81
2021/10/23 08:18:31;;;;;;;6.55;3.30;;;;;;;7.39;62.72;97121.05;1747913;80;21112;-80
2021/10/23 08:20:56;;;;;;;4.95;2.40;;;;;;;7.39;62.17;97126.70;1728206;82;21086;-81
2021/10/23 08:23:24;;;;;;;6.67;2.80;;;;;;;7.34;62.13;97127.62;1721826;80;21091;-81
2021/10/23 08:25:52;;;;;;;4.47;2.30;;;;;;;7.29;62.19;97132.38;1684688;83;21149;-81
2021/10/23 08:28:18;;;;;;;3.45;2.55;;;;;;;7.26;62.14;97130.90;1715270;81;21134;-81
2021/10/23 08:30:44;;;;;;;4.37;1.92;;;;;;;7.28;62.61;97135.92;1709749;81;21140;-80
2021/10/23 08:33:09;;;;;;;5.70;2.40;;;;;;;7.31;62.26;97133.86;1709508;81;21116;-80
2021/10/23 08:35:35;;;;;;;2.67;1.87;;;;;;;7.36;62.40;97136.86;1713903;81;21073;-81
2021/10/23 08:38:03;;;;;;;2.85;1.55;;;;;;;7.40;62.45;97127.03;1710955;81;21095;-80
2021/10/23 08:40:28;;;;;;;4.35;1.95;;;;;;;7.40;62.43;97139.48;1720766;82;21091;-81
2021/10/23 08:42:55;;;;;;;3.27;1.87;;;;;;;7.42;62.67;97144.03;1712268;82;21094;-81
2021/10/23 08:45:22;;;;;;;3.80;1.50;;;;;;;7.48;62.46;97155.56;1693782;82;21094;-80
2021/10/23 08:47:47;;;;;;;2.45;1.32;;;;;;;7.54;61.81;97149.83;1727952;80;21481;-80
2021/10/23 08:50:17;;;;;;;5.47;2.00;;;;;;;7.60;61.33;97138.09;1701867;82;21098;-81
2021/10/23 08:52:47;;;;;;;4.03;2.00;;;;;;;7.65;61.00;97133.31;1730968;81;21116;-80
2021/10/23 08:55:14;;;;;;;5.30;1.87;;;;;;;7.71;61.84;97150.35;1702748;83;21063;-80
2021/10/23 08:57:40;;;;;;;4.17;1.55;;;;;;;7.77;61.20;97155.42;1702910;82;21116;-81
2021/10/23 09:00:07;;;;;;;1.77;1.60;;;;;;;7.80;60.63;97146.88;1684632;83;21111;-80
2021/10/23 09:02:33;;;;;;;4.22;2.65;;;;;;;7.86;60.25;97153.27;1713863;80;22176;-81
2021/10/23 09:04:59;;;;;;;3.65;1.65;;;;;;;7.86;60.31;97153.74;1723132;81;21158;-81
2021/10/23 09:07:26;;;;;;;5.65;2.27;;;;;;;7.86;60.43;97157.14;1728872;81;21150;-81
2021/10/23 09:09:57;;;;;;;5.47;1.90;;;;;;;7.93;60.66;97150.41;1710817;82;21085;-81
2021/10/23 09:12:30;;;;;;;6.55;2.17;;;;;;;8.03;60.32;97156.35;1702488;83;21067;-82
2021/10/23 09:15:17;;;;;;;5.60;3.33;;;;;;;8.08;59.87;97158.48;1709590;81;21133;-80
2021/10/23 09:17:50;;;;;;;14.87;7.30;;;;;;;8.11;59.40;97160.30;1694393;82;21071;-81
2021/10/23 09:20:17;;;;;;;7.10;3.12;;;;;;;8.17;59.37;97155.52;1684502;81;21190;-80
2021/10/23 09:22:46;;;;;;;5.10;2.37;;;;;;;8.23;59.34;97162.67;1703144;80;21280;-81
2021/10/23 09:25:28;;;;;;;4.00;1.85;;;;;;;8.26;59.66;97158.49;1705120;82;21140;-81
2021/10/23 09:28:08;;;;;;;5.15;2.27;;;;;;;8.30;59.26;97160.66;1683862;84;21121;-81
2021/10/23 09:30:40;;;;;;;5.65;2.72;;;;;;;8.36;59.89;97159.27;1706274;82;21126;-81
2021/10/23 09:33:21;;;;;;;8.73;5.63;;;;;;;8.42;59.29;97172.91;1687401;84;21128;-81
2021/10/23 09:35:52;;;;;;;5.55;2.12;;;;;;;8.33;58.77;97150.48;1728603;82;21324;-80
2021/10/23 09:38:21;;;;;;;6.28;1.90;;;;;;;8.30;58.74;97172.80;1727035;80;21111;-80
2021/10/23 09:40:50;;;;;;;5.08;2.02;;;;;;;8.16;58.46;97163.77;1709076;80;21166;-81
2021/10/23 09:43:21;;;;;;;6.30;2.10;;;;;;;8.04;58.14;97165.74;1696073;82;21159;-80
2021/10/23 09:46:02;;;;;;;4.80;1.40;;;;;;;7.95;58.74;97159.32;1733598;79;21460;-80
2021/10/23 09:51:27;;;;;;;6.05;2.05;;;;;;;7.86;58.73;97165.39;1681744;83;21479;-81
2021/10/23 09:53:58;;;;;;;5.12;1.65;;;;;;;7.80;59.13;97166.28;1698706;82;21131;-81
2021/10/23 09:56:29;;;;;;;5.62;2.20;;;;;;;7.78;58.72;97168.20;1736838;78;21034;-81
2021/10/23 09:59:07;;;;;;;3.12;1.62;;;;;;;7.75;58.17;97162.03;1761957;79;21109;-81
2021/10/23 10:01:36;;;;;;;6.12;1.90;;;;;;;7.72;58.55;97161.03;1731641;80;21174;-81
2021/10/23 10:04:03;;;;;;;17.75;8.73;;;;;;;7.74;58.83;97160.41;1724150;81;21056;-80
2021/10/23 10:06:31;;;;;;;11.63;5.92;;;;;;;7.78;59.03;97164.32;1698208;84;21438;-80
2021/10/23 10:08:57;;;;;;;11.00;5.22;;;;;;;7.81;59.52;97167.94;1685168;83;21092;-81
2021/10/23 10:11:23;;;;;;;6.58;2.15;;;;;;;7.82;59.45;97166.98;1677081;82;21018;-81
2021/10/23 10:13:50;;;;;;;8.53;3.12;;;;;;;7.82;58.68;97165.69;1717811;80;21425;-81
2021/10/23 10:16:16;;;;;;;94.92;50.83;;;;;;;7.78;58.81;97163.03;1729584;80;21039;-81
2021/10/23 10:18:43;;;;;;;22.58;11.03;;;;;;;7.77;59.12;97167.05;1706717;82;21152;-81
2021/10/23 10:21:11;;;;;;;16.95;9.98;;;;;;;7.78;58.93;97175.97;1689160;83;21070;-81
2021/10/23 10:23:42;;;;;;;8.65;3.75;;;;;;;7.78;58.93;97179.84;1683679;83;21221;-80
2021/10/23 10:26:28;;;;;;;9.55;4.92;;;;;;;7.78;58.80;97185.50;1723381;81;21062;-79
2021/10/23 10:28:58;;;;;;;8.93;4.58;;;;;;;7.74;59.45;97186.27;1715205;82;21106;-81
2021/10/23 10:31:47;;;;;;;11.22;7.65;;;;;;;7.71;59.69;97191.74;1735527;80;21162;-80
2021/10/23 10:40:12;;;;;;;7.37;3.92;;;;;;;7.62;60.61;97199.05;1689320;83;21151;-79
2021/10/23 10:45:34;;;;;;;6.40;3.27;;;;;;;7.69;60.76;97192.37;1721523;82;21161;-81
2021/10/23 10:50:42;;;;;;;8.85;3.87;;;;;;;7.66;60.41;97194.44;1732051;79;21166;-81
2021/10/23 10:53:33;;;;;;;4.92;2.90;;;;;;;7.65;60.56;97189.74;1691010;81;21080;-81
2021/10/23 10:58:56;;;;;;;9.45;3.62;;;;;;;7.72;60.36;97195.14;1716622;82;21582;-81
2021/10/23 11:01:31;;;;;;;6.33;2.37;;;;;;;7.78;60.32;97188.09;1707278;82;21132;-80
2021/10/23 11:04:06;;;;;;;5.65;2.60;;;;;;;7.81;59.54;97190.41;1724423;82;21175;-81
2021/10/23 11:06:48;;;;;;;6.22;2.65;;;;;;;7.75;59.58;97195.66;1686334;84;21108;-81
2021/10/23 11:09:30;;;;;;;7.42;2.80;;;;;;;7.69;59.21;97182.02;1720619;80;21362;-81
2021/10/23 11:12:02;;;;;;;4.75;2.20;;;;;;;7.68;59.36;97183.46;1736786;81;21128;-81
2021/10/23 11:14:35;;;;;;;3.58;1.80;;;;;;;7.74;58.99;97193.22;1720375;81;21096;-80
2021/10/23 11:17:13;;;;;;;4.55;2.58;;;;;;;7.87;59.62;97189.01;1723043;82;21480;-81
2021/10/23 11:19:50;;;;;;;5.80;2.98;;;;;;;8.05;58.81;97189.37;1723483;81;21093;-81
2021/10/23 11:22:17;;;;;;;6.53;2.90;;;;;;;8.17;59.18;97187.87;1664626;84;21086;-81
2021/10/23 11:25:03;;;;;;;4.10;2.40;;;;;;;8.31;58.23;97183.48;1694697;83;21106;-81
2021/10/23 11:27:47;;;;;;;5.10;2.60;;;;;;;8.42;58.58;97200.10;1693726;83;21068;-81
2021/10/23 11:33:02;;;;;;;9.35;3.65;;;;;;;8.57;59.46;97189.55;1711732;82;21113;-81
2021/10/23 11:35:39;;;;;;;4.20;2.15;;;;;;;8.57;58.23;97178.38;1718256;80;21517;-80
2021/10/23 11:38:08;;;;;;;5.05;2.20;;;;;;;8.54;57.98;97182.57;1679607;84;21185;-81
2021/10/23 11:40:37;;;;;;;4.40;2.05;;;;;;;8.49;57.84;97179.63;1707033;81;21125;-81
2021/10/23 11:43:02;;;;;;;5.30;2.65;;;;;;;8.43;58.36;97187.00;1645008;85;21117;-81
2021/10/23 11:45:35;;;;;;;6.37;2.90;;;;;;;8.35;57.43;97199.08;1664686;85;21586;-81
2021/10/23 11:48:04;;;;;;;9.35;3.75;;;;;;;8.23;57.91;97191.16;1688305;83;21127;-81
2021/10/23 11:50:33;;;;;;;5.58;2.62;;;;;;;8.13;57.81;97185.58;1742521;80;21153;-81
2021/10/23 11:53:22;;;;;;;5.87;2.70;;;;;;;8.07;58.37;97192.62;1692142;83;21576;-81
2021/10/23 11:55:55;;;;;;;2.52;1.90;;;;;;;8.04;58.06;97186.92;1732031;80;21137;-81
2021/10/23 12:01:05;;;;;;;;;;;;;;;8.11;58.60;97188.77;1757842;80;22110;-81
2021/10/23 12:03:38;;;;;;;7.28;2.45;;;;;;;8.17;58.67;97184.80;1726767;79;20136;-81
2021/10/23 12:06:30;;;;;;;4.33;2.00;;;;;;;8.18;58.18;97186.91;1737125;81;21499;-81
2021/10/23 12:08:59;;;;;;;4.60;2.10;;;;;;;8.18;58.59;97185.13;1698875;83;21159;-81
2021/10/23 12:11:26;;;;;;;7.05;2.50;;;;;;;8.23;58.77;97197.15;1682041;84;21150;-81